sensor_id;sensor_type;location;lat;lon;timestamp;pressure;altitude;pressure_sealevel;temperature;humidity
60583;BME280;46415;47.536;19.066;2022-11-23T00:00:49;99069.47;;;3.23;100.00
60583;BME280;46415;47.536;19.066;2022-11-23T00:03:57;99067.75;;;3.23;100.00
60583;BME280;46415;47.536;19.066;2022-11-23T00:07:00;99066.97;;;3.21;100.00
60583;BME280;46415;47.536;19.066;2022-11-23T00:10:03;99073.88;;;3.19;100.00
60583;BME280;46415;47.536;19.066;2022-11-23T00:13:05;99072.81;;;3.25;100.00
60583;BME280;46415;47.536;19.066;2022-11-23T00:16:12;99068.56;;;3.24;100.00
60583;BME280;46415;47.536;19.066;2022-11-23T00:19:15;99068.56;;;3.24;100.00
60583;BME280;46415;47.536;19.066;2022-11-23T00:22:18;99073.81;;;3.21;100.00
60583;BME280;46415;47.536;19.066;2022-11-23T00:25:20;99066.62;;;3.31;100.00
60583;BME280;46415;47.536;19.066;2022-11-23T00:28:23;99062.34;;;3.31;100.00
60583;BME280;46415;47.536;19.066;2022-11-23T00:31:26;99057.22;;;3.31;100.00
60583;BME280;46415;47.536;19.066;2022-11-23T00:34:28;99063.16;;;3.33;100.00
60583;BME280;46415;47.536;19.066;2022-11-23T00:37:31;99050.91;;;3.40;100.00
60583;BME280;46415;47.536;19.066;2022-11-23T00:40:34;99051.84;;;3.39;100.00
60583;BME280;46415;47.536;19.066;2022-11-23T00:43:37;99056.03;;;3.40;100.00
60583;BME280;46415;47.536;19.066;2022-11-23T00:46:40;99063.91;;;3.35;100.00
60583;BME280;46415;47.536;19.066;2022-11-23T00:49:42;99062.84;;;3.41;100.00
60583;BME280;46415;47.536;19.066;2022-11-23T00:52:45;99063.87;;;3.37;100.00
60583;BME280;46415;47.536;19.066;2022-11-23T00:55:52;99064.69;;;3.37;100.00
60583;BME280;46415;47.536;19.066;2022-11-23T00:58:56;99062.97;;;3.38;100.00
60583;BME280;46415;47.536;19.066;2022-11-23T01:01:59;99058.56;;;3.41;100.00
60583;BME280;46415;47.536;19.066;2022-11-23T01:05:03;99048.44;;;3.38;100.00
60583;BME280;46415;47.536;19.066;2022-11-23T01:08:06;99041.66;;;3.36;100.00
60583;BME280;46415;47.536;19.066;2022-11-23T01:11:11;99046.75;;;3.37;100.00
60583;BME280;46415;47.536;19.066;2022-11-23T01:14:14;99046.56;;;3.42;100.00
60583;BME280;46415;47.536;19.066;2022-11-23T01:17:17;99054.31;;;3.40;100.00
60583;BME280;46415;47.536;19.066;2022-11-23T01:20:19;99044.22;;;3.36;100.00
60583;BME280;46415;47.536;19.066;2022-11-23T01:23:22;99045.19;;;3.33;100.00
60583;BME280;46415;47.536;19.066;2022-11-23T01:26:25;99044.06;;;3.40;100.00
60583;BME280;46415;47.536;19.066;2022-11-23T01:29:31;99047.53;;;3.39;100.00
60583;BME280;46415;47.536;19.066;2022-11-23T01:32:34;99041.50;;;3.40;100.00
60583;BME280;46415;47.536;19.066;2022-11-23T01:35:37;99031.31;;;3.39;100.00
60583;BME280;46415;47.536;19.066;2022-11-23T01:38:41;99030.19;;;3.46;100.00
60583;BME280;46415;47.536;19.066;2022-11-23T01:41:45;99027.56;;;3.47;100.00
60583;BME280;46415;47.536;19.066;2022-11-23T01:44:49;99027.75;;;3.43;100.00
60583;BME280;46415;47.536;19.066;2022-11-23T01:47:53;99029.38;;;3.45;100.00
60583;BME280;46415;47.536;19.066;2022-11-23T01:50:57;99017.25;;;3.49;100.00
60583;BME280;46415;47.536;19.066;2022-11-23T01:54:08;99025.78;;;3.49;100.00
60583;BME280;46415;47.536;19.066;2022-11-23T01:57:18;99020.06;;;3.43;100.00
60583;BME280;46415;47.536;19.066;2022-11-23T02:00:23;99005.50;;;3.43;100.00
60583;BME280;46415;47.536;19.066;2022-11-23T02:03:27;99014.25;;;3.38;100.00
60583;BME280;46415;47.536;19.066;2022-11-23T02:06:31;99023.69;;;3.37;100.00
60583;BME280;46415;47.536;19.066;2022-11-23T02:09:37;99015.63;;;3.46;100.00
60583;BME280;46415;47.536;19.066;2022-11-23T02:12:40;99008.91;;;3.44;100.00
60583;BME280;46415;47.536;19.066;2022-11-23T02:15:45;99008.91;;;3.44;100.00
60583;BME280;46415;47.536;19.066;2022-11-23T02:18:50;99022.56;;;3.44;100.00
60583;BME280;46415;47.536;19.066;2022-11-23T02:21:54;99010.00;;;3.37;100.00
60583;BME280;46415;47.536;19.066;2022-11-23T02:24:59;99012.31;;;3.44;100.00
60583;BME280;46415;47.536;19.066;2022-11-23T02:28:05;99011.34;;;3.47;100.00
60583;BME280;46415;47.536;19.066;2022-11-23T02:31:08;99008.94;;;3.42;100.00
60583;BME280;46415;47.536;19.066;2022-11-23T02:34:29;99005.72;;;3.37;100.00
60583;BME280;46415;47.536;19.066;2022-11-23T02:37:31;99021.78;;;3.42;100.00
60583;BME280;46415;47.536;19.066;2022-11-23T02:40:35;99016.56;;;3.45;100.00
60583;BME280;46415;47.536;19.066;2022-11-23T02:43:38;99007.88;;;3.48;100.00
60583;BME280;46415;47.536;19.066;2022-11-23T02:46:40;99014.00;;;3.45;100.00
60583;BME280;46415;47.536;19.066;2022-11-23T02:49:47;98997.06;;;3.40;100.00
60583;BME280;46415;47.536;19.066;2022-11-23T02:52:51;98999.72;;;3.38;100.00
60583;BME280;46415;47.536;19.066;2022-11-23T02:55:53;99022.84;;;3.37;100.00
60583;BME280;46415;47.536;19.066;2022-11-23T02:58:58;99019.13;;;3.45;100.00
60583;BME280;46415;47.536;19.066;2022-11-23T03:02:03;99013.16;;;3.45;100.00
60583;BME280;46415;47.536;19.066;2022-11-23T03:05:07;99011.69;;;3.38;100.00
60583;BME280;46415;47.536;19.066;2022-11-23T03:08:09;98997.03;;;3.41;100.00
60583;BME280;46415;47.536;19.066;2022-11-23T03:11:13;99006.56;;;3.38;100.00
60583;BME280;46415;47.536;19.066;2022-11-23T03:14:15;98999.75;;;3.37;100.00
60583;BME280;46415;47.536;19.066;2022-11-23T03:17:20;99002.50;;;3.32;100.00
60583;BME280;46415;47.536;19.066;2022-11-23T03:20:24;98996.31;;;3.38;100.00
60583;BME280;46415;47.536;19.066;2022-11-23T03:23:27;99000.41;;;3.42;100.00
60583;BME280;46415;47.536;19.066;2022-11-23T03:26:30;99020.31;;;3.35;100.00
60583;BME280;46415;47.536;19.066;2022-11-23T03:29:34;99017.47;;;3.43;100.00
60583;BME280;46415;47.536;19.066;2022-11-23T03:32:38;98998.38;;;3.51;100.00
60583;BME280;46415;47.536;19.066;2022-11-23T03:35:41;99002.06;;;3.44;100.00
60583;BME280;46415;47.536;19.066;2022-11-23T03:38:45;99004.72;;;3.41;100.00
60583;BME280;46415;47.536;19.066;2022-11-23T03:41:57;99008.34;;;3.36;100.00
60583;BME280;46415;47.536;19.066;2022-11-23T03:45:01;99005.38;;;3.46;100.00
60583;BME280;46415;47.536;19.066;2022-11-23T03:48:04;99014.31;;;3.36;100.00
60583;BME280;46415;47.536;19.066;2022-11-23T03:51:07;99005.50;;;3.43;100.00
60583;BME280;46415;47.536;19.066;2022-11-23T03:54:10;99009.87;;;3.40;100.00
60583;BME280;46415;47.536;19.066;2022-11-23T03:57:13;99015.00;;;3.40;100.00
60583;BME280;46415;47.536;19.066;2022-11-23T04:00:16;99009.97;;;3.38;100.00
60583;BME280;46415;47.536;19.066;2022-11-23T04:03:19;99006.50;;;3.39;100.00
60583;BME280;46415;47.536;19.066;2022-11-23T04:06:25;98998.06;;;3.36;100.00
60583;BME280;46415;47.536;19.066;2022-11-23T04:09:28;98997.16;;;3.38;100.00
60583;BME280;46415;47.536;19.066;2022-11-23T04:12:33;99011.47;;;3.44;100.00
60583;BME280;46415;47.536;19.066;2022-11-23T04:15:36;99007.19;;;3.44;100.00
60583;BME280;46415;47.536;19.066;2022-11-23T04:18:39;99010.06;;;3.35;100.00
60583;BME280;46415;47.536;19.066;2022-11-23T04:21:42;99009.84;;;3.41;100.00
60583;BME280;46415;47.536;19.066;2022-11-23T04:24:44;99002.06;;;3.44;100.00
60583;BME280;46415;47.536;19.066;2022-11-23T04:27:47;99002.87;;;3.45;100.00
60583;BME280;46415;47.536;19.066;2022-11-23T04:30:50;98996.13;;;3.42;100.00
60583;BME280;46415;47.536;19.066;2022-11-23T04:33:54;99002.28;;;3.38;100.00
60583;BME280;46415;47.536;19.066;2022-11-23T04:36:58;99006.44;;;3.41;100.00
60583;BME280;46415;47.536;19.066;2022-11-23T04:40:01;99026.13;;;3.40;100.00
60583;BME280;46415;47.536;19.066;2022-11-23T04:43:07;99018.50;;;3.39;100.00
60583;BME280;46415;47.536;19.066;2022-11-23T04:46:11;99014.97;;;3.41;100.00
60583;BME280;46415;47.536;19.066;2022-11-23T04:49:15;99011.19;;;3.51;100.00
60583;BME280;46415;47.536;19.066;2022-11-23T04:52:18;99008.34;;;3.36;100.00
60583;BME280;46415;47.536;19.066;2022-11-23T04:55:21;99012.78;;;3.31;100.00
60583;BME280;46415;47.536;19.066;2022-11-23T04:58:24;99019.34;;;3.39;100.00
60583;BME280;46415;47.536;19.066;2022-11-23T05:01:32;99017.87;;;3.32;100.00
60583;BME280;46415;47.536;19.066;2022-11-23T05:04:39;99033.09;;;3.37;100.00
60583;BME280;46415;47.536;19.066;2022-11-23T05:07:42;99021.09;;;3.37;100.00
60583;BME280;46415;47.536;19.066;2022-11-23T05:10:45;99015.97;;;3.37;100.00
60583;BME280;46415;47.536;19.066;2022-11-23T05:13:48;99016.91;;;3.35;100.00
60583;BME280;46415;47.536;19.066;2022-11-23T05:16:51;99020.31;;;3.35;100.00
60583;BME280;46415;47.536;19.066;2022-11-23T05:19:53;99030.56;;;3.35;100.00
60583;BME280;46415;47.536;19.066;2022-11-23T05:22:58;99025.13;;;3.44;100.00
60583;BME280;46415;47.536;19.066;2022-11-23T05:26:00;99020.06;;;3.43;100.00
60583;BME280;46415;47.536;19.066;2022-11-23T05:29:04;99012.09;;;3.50;100.00
60583;BME280;46415;47.536;19.066;2022-11-23T05:32:07;99009.63;;;3.47;100.00
60583;BME280;46415;47.536;19.066;2022-11-23T05:35:10;99005.72;;;3.37;100.00
60583;BME280;46415;47.536;19.066;2022-11-23T05:38:13;98994.50;;;3.40;100.00
60583;BME280;46415;47.536;19.066;2022-11-23T05:41:17;98999.62;;;3.40;100.00
60583;BME280;46415;47.536;19.066;2022-11-23T05:44:20;98998.06;;;3.36;100.00
60583;BME280;46415;47.536;19.066;2022-11-23T05:47:23;98997.19;;;3.37;100.00
60583;BME280;46415;47.536;19.066;2022-11-23T05:50:26;98986.59;;;3.46;100.00
60583;BME280;46415;47.536;19.066;2022-11-23T05:53:44;98988.13;;;3.51;100.00
60583;BME280;46415;47.536;19.066;2022-11-23T05:56:47;98989.00;;;3.50;100.00
60583;BME280;46415;47.536;19.066;2022-11-23T05:59:51;98983.91;;;3.49;100.00
60583;BME280;46415;47.536;19.066;2022-11-23T06:02:59;98987.37;;;3.48;100.00
60583;BME280;46415;47.536;19.066;2022-11-23T06:06:03;98992.41;;;3.51;100.00
60583;BME280;46415;47.536;19.066;2022-11-23T06:09:08;98989.66;;;3.55;100.00
60583;BME280;46415;47.536;19.066;2022-11-23T06:12:11;98993.91;;;3.56;100.00
60583;BME280;46415;47.536;19.066;2022-11-23T06:15:14;98997.59;;;3.49;100.00
60583;BME280;46415;47.536;19.066;2022-11-23T06:18:19;99014.69;;;3.49;100.00
60583;BME280;46415;47.536;19.066;2022-11-23T06:21:21;99017.87;;;3.55;100.00
60583;BME280;46415;47.536;19.066;2022-11-23T06:24:25;99011.94;;;3.53;100.00
60583;BME280;46415;47.536;19.066;2022-11-23T06:27:30;99010.87;;;3.59;100.00
60583;BME280;46415;47.536;19.066;2022-11-23T06:30:34;99016.03;;;3.59;100.00
60583;BME280;46415;47.536;19.066;2022-11-23T06:33:37;99012.75;;;3.55;100.00
60583;BME280;46415;47.536;19.066;2022-11-23T06:36:40;99009.13;;;3.61;100.00
60583;BME280;46415;47.536;19.066;2022-11-23T06:39:44;99023.38;;;3.68;100.00
60583;BME280;46415;47.536;19.066;2022-11-23T06:42:47;99027.97;;;3.60;100.00
60583;BME280;46415;47.536;19.066;2022-11-23T06:45:50;99033.78;;;3.63;100.00
60583;BME280;46415;47.536;19.066;2022-11-23T06:48:52;99020.75;;;3.69;100.00
60583;BME280;46415;47.536;19.066;2022-11-23T06:51:55;99026.00;;;3.66;100.00
60583;BME280;46415;47.536;19.066;2022-11-23T06:54:58;99021.06;;;3.62;100.00
60583;BME280;46415;47.536;19.066;2022-11-23T06:58:01;99023.53;;;3.63;100.00
60583;BME280;46415;47.536;19.066;2022-11-23T07:01:06;99025.34;;;3.61;100.00
60583;BME280;46415;47.536;19.066;2022-11-23T07:04:10;99020.22;;;3.61;100.00
60583;BME280;46415;47.536;19.066;2022-11-23T07:07:13;99021.66;;;3.68;100.00
60583;BME280;46415;47.536;19.066;2022-11-23T07:10:18;99022.59;;;3.66;100.00
60583;BME280;46415;47.536;19.066;2022-11-23T07:13:21;99025.81;;;3.71;100.00
60583;BME280;46415;47.536;19.066;2022-11-23T07:16:23;99044.69;;;3.70;100.00
60583;BME280;46415;47.536;19.066;2022-11-23T07:19:26;99041.72;;;3.81;100.00
60583;BME280;46415;47.536;19.066;2022-11-23T07:22:30;99043.97;;;3.88;100.00
60583;BME280;46415;47.536;19.066;2022-11-23T07:25:34;99036.09;;;3.71;100.00
60583;BME280;46415;47.536;19.066;2022-11-23T07:28:37;99043.47;;;3.80;100.00
60583;BME280;46415;47.536;19.066;2022-11-23T07:31:40;99046.41;;;3.69;100.00
60583;BME280;46415;47.536;19.066;2022-11-23T07:34:43;99042.91;;;3.72;100.00
60583;BME280;46415;47.536;19.066;2022-11-23T07:37:47;99045.41;;;3.74;100.00
60583;BME280;46415;47.536;19.066;2022-11-23T07:40:49;99037.50;;;3.80;100.00
60583;BME280;46415;47.536;19.066;2022-11-23T07:43:54;99031.78;;;3.72;100.00
60583;BME280;46415;47.536;19.066;2022-11-23T07:46:56;99038.38;;;3.79;100.00
60583;BME280;46415;47.536;19.066;2022-11-23T07:49:59;99043.09;;;3.89;100.00
60583;BME280;46415;47.536;19.066;2022-11-23T07:53:02;99048.50;;;3.82;100.00
60583;BME280;46415;47.536;19.066;2022-11-23T07:56:06;99047.56;;;3.84;100.00
60583;BME280;46415;47.536;19.066;2022-11-23T07:59:08;99057.78;;;3.86;100.00
60583;BME280;46415;47.536;19.066;2022-11-23T08:02:13;99057.13;;;3.81;100.00
60583;BME280;46415;47.536;19.066;2022-11-23T08:05:18;99048.28;;;3.88;100.00
60583;BME280;46415;47.536;19.066;2022-11-23T08:08:21;99054.25;;;3.88;100.00
60583;BME280;46415;47.536;19.066;2022-11-23T08:11:24;99054.38;;;3.85;100.00
60583;BME280;46415;47.536;19.066;2022-11-23T08:14:26;99051.62;;;3.90;100.00
60583;BME280;46415;47.536;19.066;2022-11-23T08:17:29;99061.66;;;3.96;100.00
60583;BME280;46415;47.536;19.066;2022-11-23T08:20:33;99053.75;;;4.02;100.00
60583;BME280;46415;47.536;19.066;2022-11-23T08:23:36;99059.81;;;3.99;100.00
60583;BME280;46415;47.536;19.066;2022-11-23T08:26:38;99065.72;;;4.01;100.00
60583;BME280;46415;47.536;19.066;2022-11-23T08:29:41;99068.12;;;4.06;100.00
60583;BME280;46415;47.536;19.066;2022-11-23T08:32:43;99069.69;;;4.10;100.00
60583;BME280;46415;47.536;19.066;2022-11-23T08:35:46;99065.16;;;4.17;100.00
60583;BME280;46415;47.536;19.066;2022-11-23T08:38:48;99059.19;;;4.16;100.00
60583;BME280;46415;47.536;19.066;2022-11-23T08:41:55;99067.41;;;4.24;100.00
60583;BME280;46415;47.536;19.066;2022-11-23T08:44:58;99067.06;;;4.33;100.00
60583;BME280;46415;47.536;19.066;2022-11-23T08:48:02;99060.12;;;4.35;100.00
60583;BME280;46415;47.536;19.066;2022-11-23T08:51:05;99062.81;;;4.32;100.00
60583;BME280;46415;47.536;19.066;2022-11-23T08:54:08;99062.19;;;4.27;100.00
60583;BME280;46415;47.536;19.066;2022-11-23T08:57:10;99070.63;;;4.29;100.00
60583;BME280;46415;47.536;19.066;2022-11-23T09:00:15;99071.47;;;4.30;100.00
60583;BME280;46415;47.536;19.066;2022-11-23T09:03:18;99073.28;;;4.28;100.00
60583;BME280;46415;47.536;19.066;2022-11-23T09:06:20;99078.75;;;4.19;100.00
60583;BME280;46415;47.536;19.066;2022-11-23T09:09:30;99075.19;;;4.23;100.00
60583;BME280;46415;47.536;19.066;2022-11-23T09:12:32;99078.16;;;4.12;100.00
60583;BME280;46415;47.536;19.066;2022-11-23T09:15:35;99083.94;;;4.17;100.00
60583;BME280;46415;47.536;19.066;2022-11-23T09:18:38;99072.88;;;4.17;100.00
60583;BME280;46415;47.536;19.066;2022-11-23T09:21:40;99072.78;;;4.18;100.00
60583;BME280;46415;47.536;19.066;2022-11-23T09:24:45;99075.00;;;4.27;100.00
60583;BME280;46415;47.536;19.066;2022-11-23T09:27:48;99076.59;;;4.30;100.00
60583;BME280;46415;47.536;19.066;2022-11-23T09:30:50;99077.53;;;4.29;100.00
60583;BME280;46415;47.536;19.066;2022-11-23T09:33:54;99069.97;;;4.24;100.00
60583;BME280;46415;47.536;19.066;2022-11-23T09:36:57;99074.22;;;4.25;100.00
60583;BME280;46415;47.536;19.066;2022-11-23T09:39:59;99080.09;;;4.29;100.00
60583;BME280;46415;47.536;19.066;2022-11-23T09:49:21;99066.28;;;4.31;100.00
60583;BME280;46415;47.536;19.066;2022-11-23T09:52:28;99069.69;;;4.32;100.00
60583;BME280;46415;47.536;19.066;2022-11-23T09:55:41;99071.56;;;4.28;100.00
60583;BME280;46415;47.536;19.066;2022-11-23T09:58:45;99067.19;;;4.30;100.00
60583;BME280;46415;47.536;19.066;2022-11-23T10:01:48;99061.09;;;4.33;100.00
60583;BME280;46415;47.536;19.066;2022-11-23T10:04:52;99062.69;;;4.35;100.00
60583;BME280;46415;47.536;19.066;2022-11-23T10:08:05;99064.44;;;4.35;100.00
60583;BME280;46415;47.536;19.066;2022-11-23T10:11:30;99066.03;;;4.37;100.00
60583;BME280;46415;47.536;19.066;2022-11-23T10:24:36;99064.31;;;4.38;100.00
60583;BME280;46415;47.536;19.066;2022-11-23T10:27:39;99064.13;;;4.42;100.00
60583;BME280;46415;47.536;19.066;2022-11-23T10:30:45;99056.41;;;4.42;100.00
60583;BME280;46415;47.536;19.066;2022-11-23T10:37:09;99056.13;;;4.50;100.00
60583;BME280;46415;47.536;19.066;2022-11-23T10:40:16;99054.38;;;4.50;100.00
60583;BME280;46415;47.536;19.066;2022-11-23T10:43:24;99055.22;;;4.51;100.00
60583;BME280;46415;47.536;19.066;2022-11-23T10:46:37;99059.53;;;4.50;100.00
60583;BME280;46415;47.536;19.066;2022-11-23T10:49:56;99069.56;;;4.57;100.00
60583;BME280;46415;47.536;19.066;2022-11-23T10:53:16;99061.13;;;4.53;100.00
60583;BME280;46415;47.536;19.066;2022-11-23T10:56:20;99066.09;;;4.58;100.00
60583;BME280;46415;47.536;19.066;2022-11-23T10:59:36;99063.59;;;4.56;100.00
60583;BME280;46415;47.536;19.066;2022-11-23T11:02:41;99065.56;;;4.49;100.00
60583;BME280;46415;47.536;19.066;2022-11-23T11:05:49;99066.00;;;4.59;100.00
60583;BME280;46415;47.536;19.066;2022-11-23T11:09:19;99066.00;;;4.59;100.00
60583;BME280;46415;47.536;19.066;2022-11-23T11:12:22;99053.25;;;4.58;100.00
60583;BME280;46415;47.536;19.066;2022-11-23T11:15:25;99056.53;;;4.61;100.00
60583;BME280;46415;47.536;19.066;2022-11-23T11:18:33;99050.94;;;4.51;100.00
60583;BME280;46415;47.536;19.066;2022-11-23T11:21:40;99055.34;;;4.48;100.00
60583;BME280;46415;47.536;19.066;2022-11-23T11:24:43;99056.91;;;4.52;100.00
60583;BME280;46415;47.536;19.066;2022-11-23T11:27:50;99054.44;;;4.49;100.00
60583;BME280;46415;47.536;19.066;2022-11-23T11:31:09;99058.44;;;4.56;100.00
60583;BME280;46415;47.536;19.066;2022-11-23T11:40:33;99056.66;;;4.58;100.00
60583;BME280;46415;47.536;19.066;2022-11-23T11:43:46;99058.00;;;4.67;100.00
60583;BME280;46415;47.536;19.066;2022-11-23T11:46:59;99057.66;;;4.76;100.00
60583;BME280;46415;47.536;19.066;2022-11-23T11:50:14;99057.19;;;4.86;100.00
60583;BME280;46415;47.536;19.066;2022-11-23T11:53:29;99047.75;;;4.87;100.00
60583;BME280;46415;47.536;19.066;2022-11-23T11:56:43;99056.47;;;4.83;100.00
60583;BME280;46415;47.536;19.066;2022-11-23T11:59:52;99063.44;;;4.81;100.00
60583;BME280;46415;47.536;19.066;2022-11-23T12:06:26;99061.75;;;4.80;100.00
60583;BME280;46415;47.536;19.066;2022-11-23T12:09:35;99055.25;;;4.91;100.00
60583;BME280;46415;47.536;19.066;2022-11-23T12:12:40;99057.59;;;4.98;100.00
60583;BME280;46415;47.536;19.066;2022-11-23T12:15:51;99054.31;;;4.94;100.00
60583;BME280;46415;47.536;19.066;2022-11-23T12:25:51;99062.25;;;5.08;100.00
60583;BME280;46415;47.536;19.066;2022-11-23T12:32:26;99059.16;;;5.20;100.00
60583;BME280;46415;47.536;19.066;2022-11-23T12:45:51;99054.81;;;5.22;100.00
60583;BME280;46415;47.536;19.066;2022-11-23T12:55:53;99043.31;;;5.11;100.00
60583;BME280;46415;47.536;19.066;2022-11-23T12:58:59;99052.69;;;5.12;100.00
60583;BME280;46415;47.536;19.066;2022-11-23T13:02:10;99050.03;;;5.13;100.00
60583;BME280;46415;47.536;19.066;2022-11-23T13:05:39;99051.09;;;5.09;100.00
60583;BME280;46415;47.536;19.066;2022-11-23T13:22:17;99060.31;;;5.13;100.00
60583;BME280;46415;47.536;19.066;2022-11-23T13:28:28;99060.00;;;5.01;100.00
60583;BME280;46415;47.536;19.066;2022-11-23T13:31:32;99075.31;;;5.04;100.00
60583;BME280;46415;47.536;19.066;2022-11-23T13:34:45;99077.31;;;4.97;100.00
60583;BME280;46415;47.536;19.066;2022-11-23T13:41:01;99073.91;;;4.97;100.00
60583;BME280;46415;47.536;19.066;2022-11-23T13:50:18;99069.47;;;5.00;100.00
60583;BME280;46415;47.536;19.066;2022-11-23T13:53:30;99076.41;;;4.98;100.00
60583;BME280;46415;47.536;19.066;2022-11-23T13:56:39;99076.41;;;4.98;100.00
60583;BME280;46415;47.536;19.066;2022-11-23T13:59:42;99070.87;;;5.07;100.00
60583;BME280;46415;47.536;19.066;2022-11-23T14:02:45;99075.38;;;5.02;100.00
60583;BME280;46415;47.536;19.066;2022-11-23T14:09:02;99076.00;;;5.07;100.00
60583;BME280;46415;47.536;19.066;2022-11-23T14:15:35;99077.00;;;5.05;100.00
60583;BME280;46415;47.536;19.066;2022-11-23T14:19:01;99077.69;;;5.08;100.00
60583;BME280;46415;47.536;19.066;2022-11-23T14:22:33;99076.00;;;5.07;100.00
60583;BME280;46415;47.536;19.066;2022-11-23T14:29:16;99073.38;;;5.09;100.00
60583;BME280;46415;47.536;19.066;2022-11-23T14:32:46;99075.75;;;5.13;100.00
60583;BME280;46415;47.536;19.066;2022-11-23T14:36:16;99078.22;;;5.16;100.00
60583;BME280;46415;47.536;19.066;2022-11-23T14:39:58;99084.56;;;5.08;100.00
60583;BME280;46415;47.536;19.066;2022-11-23T14:43:11;99083.09;;;5.22;100.00
60583;BME280;46415;47.536;19.066;2022-11-23T14:46:20;99086.00;;;5.15;100.00
60583;BME280;46415;47.536;19.066;2022-11-23T14:49:26;99085.94;;;5.16;100.00
60583;BME280;46415;47.536;19.066;2022-11-23T14:52:34;99096.47;;;5.10;100.00
60583;BME280;46415;47.536;19.066;2022-11-23T14:55:38;99094.78;;;5.09;100.00
60583;BME280;46415;47.536;19.066;2022-11-23T14:58:40;99093.50;;;5.19;100.00
60583;BME280;46415;47.536;19.066;2022-11-23T15:01:50;99102.91;;;5.20;100.00
60583;BME280;46415;47.536;19.066;2022-11-23T15:05:02;99103.16;;;5.14;100.00
60583;BME280;46415;47.536;19.066;2022-11-23T15:08:20;99101.47;;;5.13;100.00
60583;BME280;46415;47.536;19.066;2022-11-23T15:11:26;99106.34;;;5.19;100.00
60583;BME280;46415;47.536;19.066;2022-11-23T15:14:30;99109.72;;;5.21;100.00
60583;BME280;46415;47.536;19.066;2022-11-23T15:17:33;99112.47;;;5.17;100.00
60583;BME280;46415;47.536;19.066;2022-11-23T15:20:44;99120.25;;;5.15;100.00
60583;BME280;46415;47.536;19.066;2022-11-23T15:23:51;99111.34;;;5.24;100.00
60583;BME280;46415;47.536;19.066;2022-11-23T15:27:03;99117.69;;;5.36;100.00
60583;BME280;46415;47.536;19.066;2022-11-23T15:30:18;99116.37;;;5.25;100.00
60583;BME280;46415;47.536;19.066;2022-11-23T15:33:22;99114.03;;;5.21;100.00
60583;BME280;46415;47.536;19.066;2022-11-23T15:36:32;99120.00;;;5.21;100.00
60583;BME280;46415;47.536;19.066;2022-11-23T15:39:35;99123.63;;;5.17;100.00
60583;BME280;46415;47.536;19.066;2022-11-23T15:42:40;99122.03;;;5.13;100.00
60583;BME280;46415;47.536;19.066;2022-11-23T15:48:47;99126.28;;;5.14;100.00
60583;BME280;46415;47.536;19.066;2022-11-23T15:51:58;99124.50;;;5.16;100.00
60583;BME280;46415;47.536;19.066;2022-11-23T15:55:06;99119.31;;;5.18;100.00
60583;BME280;46415;47.536;19.066;2022-11-23T15:58:17;99115.00;;;5.18;100.00
60583;BME280;46415;47.536;19.066;2022-11-23T16:01:20;99111.84;;;5.12;100.00
60583;BME280;46415;47.536;19.066;2022-11-23T16:04:31;99120.25;;;5.15;100.00
60583;BME280;46415;47.536;19.066;2022-11-23T16:07:50;99127.44;;;5.07;100.00
60583;BME280;46415;47.536;19.066;2022-11-23T16:10:57;99131.19;;;5.00;100.00
60583;BME280;46415;47.536;19.066;2022-11-23T16:14:19;99133.63;;;5.03;100.00
60583;BME280;46415;47.536;19.066;2022-11-23T16:17:33;99138.22;;;4.95;100.00
60583;BME280;46415;47.536;19.066;2022-11-23T16:20:42;99129.88;;;4.90;100.00
60583;BME280;46415;47.536;19.066;2022-11-23T16:23:49;99135.16;;;4.87;100.00
60583;BME280;46415;47.536;19.066;2022-11-23T16:26:52;99136.00;;;4.87;100.00
60583;BME280;46415;47.536;19.066;2022-11-23T16:29:56;99136.81;;;4.88;100.00
60583;BME280;46415;47.536;19.066;2022-11-23T16:33:04;99157.38;;;4.88;100.00
60583;BME280;46415;47.536;19.066;2022-11-23T16:36:08;99145.44;;;4.87;100.00
60583;BME280;46415;47.536;19.066;2022-11-23T16:39:10;99148.75;;;4.89;100.00
60583;BME280;46415;47.536;19.066;2022-11-23T16:42:14;99145.38;;;4.88;100.00
60583;BME280;46415;47.536;19.066;2022-11-23T16:45:17;99158.16;;;4.90;100.00
60583;BME280;46415;47.536;19.066;2022-11-23T16:51:26;99156.22;;;4.95;100.00
60583;BME280;46415;47.536;19.066;2022-11-23T16:54:29;99153.00;;;4.90;100.00
60583;BME280;46415;47.536;19.066;2022-11-23T16:57:32;99154.87;;;4.86;100.00
60583;BME280;46415;47.536;19.066;2022-11-23T17:00:36;99155.16;;;4.79;100.00
60583;BME280;46415;47.536;19.066;2022-11-23T17:03:38;99155.06;;;4.82;100.00
60583;BME280;46415;47.536;19.066;2022-11-23T17:06:42;99164.41;;;4.83;100.00
60583;BME280;46415;47.536;19.066;2022-11-23T17:09:46;99170.34;;;4.85;100.00
60583;BME280;46415;47.536;19.066;2022-11-23T17:12:50;99168.75;;;4.82;100.00
60583;BME280;46415;47.536;19.066;2022-11-23T17:15:53;99174.47;;;4.89;100.00
60583;BME280;46415;47.536;19.066;2022-11-23T17:18:56;99168.63;;;4.85;100.00
60583;BME280;46415;47.536;19.066;2022-11-23T17:21:59;99167.72;;;4.86;100.00
60583;BME280;46415;47.536;19.066;2022-11-23T17:25:01;99171.78;;;4.92;100.00
60583;BME280;46415;47.536;19.066;2022-11-23T17:28:09;99170.34;;;4.85;100.00
60583;BME280;46415;47.536;19.066;2022-11-23T17:31:13;99171.00;;;4.90;100.00
60583;BME280;46415;47.536;19.066;2022-11-23T17:34:16;99167.78;;;4.85;100.00
60583;BME280;46415;47.536;19.066;2022-11-23T17:37:21;99172.03;;;4.86;100.00
60583;BME280;46415;47.536;19.066;2022-11-23T17:40:25;99177.22;;;4.84;100.00
60583;BME280;46415;47.536;19.066;2022-11-23T17:43:28;99172.03;;;4.86;100.00
60583;BME280;46415;47.536;19.066;2022-11-23T17:46:31;99171.19;;;4.85;100.00
60583;BME280;46415;47.536;19.066;2022-11-23T17:49:35;99173.81;;;4.84;100.00